sensor_id;sensor_type;location;lat;lon;timestamp;pressure;altitude;pressure_sealevel;temperature;humidity
30618;BME280;17384;51.214;9.202;2023-02-17T00:00:12;99194.16;;;6.26;83.26
30618;BME280;17384;51.214;9.202;2023-02-17T00:02:37;99195.19;;;6.25;83.32
30618;BME280;17384;51.214;9.202;2023-02-17T00:05:04;99203.63;;;6.22;83.70
30618;BME280;17384;51.214;9.202;2023-02-17T00:07:31;99206.13;;;6.24;83.40
30618;BME280;17384;51.214;9.202;2023-02-17T00:09:59;99198.28;;;6.37;83.11
30618;BME280;17384;51.214;9.202;2023-02-17T00:12:25;99198.47;;;6.58;82.17
30618;BME280;17384;51.214;9.202;2023-02-17T00:14:51;99199.06;;;6.68;82.16
30618;BME280;17384;51.214;9.202;2023-02-17T00:17:16;99192.31;;;6.72;81.97
30618;BME280;17384;51.214;9.202;2023-02-17T00:19:42;99188.94;;;6.70;82.25
30618;BME280;17384;51.214;9.202;2023-02-17T00:22:07;99189.13;;;6.69;82.38
30618;BME280;17384;51.214;9.202;2023-02-17T00:24:36;99196.56;;;6.67;82.43
30618;BME280;17384;51.214;9.202;2023-02-17T00:27:03;99197.56;;;6.66;82.68
30618;BME280;17384;51.214;9.202;2023-02-17T00:29:28;99187.50;;;6.60;82.71
30618;BME280;17384;51.214;9.202;2023-02-17T00:31:54;99198.28;;;6.60;82.59
30618;BME280;17384;51.214;9.202;2023-02-17T00:34:20;99203.69;;;6.60;83.04
30618;BME280;17384;51.214;9.202;2023-02-17T00:36:46;99193.25;;;6.57;83.34
30618;BME280;17384;51.214;9.202;2023-02-17T00:39:13;99197.00;;;6.56;83.48
30618;BME280;17384;51.214;9.202;2023-02-17T00:41:39;99183.31;;;6.57;83.42
30618;BME280;17384;51.214;9.202;2023-02-17T00:44:05;99188.69;;;6.57;83.32
30618;BME280;17384;51.214;9.202;2023-02-17T00:46:30;99181.28;;;6.59;83.44
30618;BME280;17384;51.214;9.202;2023-02-17T00:48:56;99191.97;;;6.53;83.59
30618;BME280;17384;51.214;9.202;2023-02-17T00:51:22;99190.28;;;6.52;83.32
30618;BME280;17384;51.214;9.202;2023-02-17T00:53:48;99179.16;;;6.55;83.47
30618;BME280;17384;51.214;9.202;2023-02-17T00:56:14;99196.50;;;6.52;83.58
30618;BME280;17384;51.214;9.202;2023-02-17T00:58:40;99203.31;;;6.40;84.09
30618;BME280;17384;51.214;9.202;2023-02-17T01:01:06;99177.88;;;6.42;83.79
30618;BME280;17384;51.214;9.202;2023-02-17T01:03:32;99194.84;;;6.51;83.70
30618;BME280;17384;51.214;9.202;2023-02-17T01:05:58;99195.19;;;6.48;83.99
30618;BME280;17384;51.214;9.202;2023-02-17T01:08:24;99181.22;;;6.44;84.44
30618;BME280;17384;51.214;9.202;2023-02-17T01:10:50;99175.91;;;6.36;84.66
30618;BME280;17384;51.214;9.202;2023-02-17T01:13:17;99169.31;;;6.39;84.61
30618;BME280;17384;51.214;9.202;2023-02-17T01:15:46;99182.13;;;6.37;84.71
30618;BME280;17384;51.214;9.202;2023-02-17T01:18:13;99175.91;;;6.36;84.73
30618;BME280;17384;51.214;9.202;2023-02-17T01:20:40;99167.50;;;6.31;85.26
30618;BME280;17384;51.214;9.202;2023-02-17T01:23:07;99157.38;;;6.33;85.34
30618;BME280;17384;51.214;9.202;2023-02-17T01:25:44;99157.75;;;6.30;85.55
30618;BME280;17384;51.214;9.202;2023-02-17T01:28:16;99160.44;;;6.30;85.91
30618;BME280;17384;51.214;9.202;2023-02-17T01:30:42;99149.88;;;6.29;85.85
30618;BME280;17384;51.214;9.202;2023-02-17T01:33:07;99154.47;;;6.20;86.32
30618;BME280;17384;51.214;9.202;2023-02-17T01:35:33;99142.59;;;6.29;86.17
30618;BME280;17384;51.214;9.202;2023-02-17T01:37:59;99140.81;;;6.22;86.29
30618;BME280;17384;51.214;9.202;2023-02-17T01:40:25;99128.84;;;6.24;86.44
30618;BME280;17384;51.214;9.202;2023-02-17T01:42:50;99129.69;;;6.25;86.54
30618;BME280;17384;51.214;9.202;2023-02-17T01:45:31;99119.56;;;6.27;86.82
30618;BME280;17384;51.214;9.202;2023-02-17T01:50:36;99104.31;;;6.19;86.66
30618;BME280;17384;51.214;9.202;2023-02-17T01:53:05;99116.41;;;6.23;86.86
30618;BME280;17384;51.214;9.202;2023-02-17T01:55:32;99108.50;;;6.22;87.49
30618;BME280;17384;51.214;9.202;2023-02-17T01:57:59;99098.59;;;6.14;87.60
30618;BME280;17384;51.214;9.202;2023-02-17T02:00:27;99112.38;;;6.19;87.85
30618;BME280;17384;51.214;9.202;2023-02-17T02:02:54;99108.72;;;6.12;88.07
30618;BME280;17384;51.214;9.202;2023-02-17T02:05:21;99096.09;;;6.13;87.86
30618;BME280;17384;51.214;9.202;2023-02-17T02:07:47;99087.53;;;6.09;87.56
30618;BME280;17384;51.214;9.202;2023-02-17T02:10:15;99073.50;;;5.99;88.45
30618;BME280;17384;51.214;9.202;2023-02-17T02:12:42;99080.47;;;6.08;88.36
30618;BME280;17384;51.214;9.202;2023-02-17T02:15:14;99075.38;;;6.13;88.17
30618;BME280;17384;51.214;9.202;2023-02-17T02:23:42;99067.31;;;6.13;88.47
30618;BME280;17384;51.214;9.202;2023-02-17T02:34:52;99057.22;;;6.30;87.74
30618;BME280;17384;51.214;9.202;2023-02-17T02:37:25;99061.22;;;6.34;88.09
30618;BME280;17384;51.214;9.202;2023-02-17T02:39:53;99046.34;;;6.23;88.20
30618;BME280;17384;51.214;9.202;2023-02-17T02:42:22;99052.03;;;6.28;88.02
30618;BME280;17384;51.214;9.202;2023-02-17T02:44:48;99052.75;;;6.22;88.54
30618;BME280;17384;51.214;9.202;2023-02-17T02:47:37;99056.00;;;6.32;88.37
30618;BME280;17384;51.214;9.202;2023-02-17T02:50:06;99053.63;;;6.37;87.56
30618;BME280;17384;51.214;9.202;2023-02-17T02:52:50;99048.88;;;6.39;87.82
30618;BME280;17384;51.214;9.202;2023-02-17T02:55:50;99043.13;;;6.28;88.28
30618;BME280;17384;51.214;9.202;2023-02-17T02:58:50;99048.59;;;6.34;88.22
30618;BME280;17384;51.214;9.202;2023-02-17T03:01:22;99034.56;;;6.39;88.58
30618;BME280;17384;51.214;9.202;2023-02-17T03:09:11;99041.28;;;6.43;88.83
30618;BME280;17384;51.214;9.202;2023-02-17T03:11:40;99031.63;;;6.49;88.66
30618;BME280;17384;51.214;9.202;2023-02-17T03:14:11;99027.06;;;6.49;87.95
30618;BME280;17384;51.214;9.202;2023-02-17T03:16:38;99034.31;;;6.49;88.23
30618;BME280;17384;51.214;9.202;2023-02-17T03:19:05;99026.13;;;6.42;88.72
30618;BME280;17384;51.214;9.202;2023-02-17T03:21:40;99034.41;;;6.40;88.90
30618;BME280;17384;51.214;9.202;2023-02-17T03:24:06;99032.25;;;6.36;89.04
30618;BME280;17384;51.214;9.202;2023-02-17T03:26:32;99023.44;;;6.42;88.93
30618;BME280;17384;51.214;9.202;2023-02-17T03:28:58;99031.91;;;6.54;89.03
30618;BME280;17384;51.214;9.202;2023-02-17T03:31:23;99012.66;;;6.57;88.37
30618;BME280;17384;51.214;9.202;2023-02-17T03:33:49;99018.25;;;6.55;88.57
30618;BME280;17384;51.214;9.202;2023-02-17T03:36:15;99012.69;;;6.71;88.24
30618;BME280;17384;51.214;9.202;2023-02-17T03:38:41;99003.09;;;6.69;88.33
30618;BME280;17384;51.214;9.202;2023-02-17T03:41:06;99008.22;;;6.64;88.96
30618;BME280;17384;51.214;9.202;2023-02-17T03:43:32;99007.38;;;6.63;88.66
30618;BME280;17384;51.214;9.202;2023-02-17T03:45:58;99002.63;;;6.65;88.67
30618;BME280;17384;51.214;9.202;2023-02-17T03:48:23;99009.22;;;6.63;88.99
30618;BME280;17384;51.214;9.202;2023-02-17T03:50:49;99004.97;;;6.68;88.88
30618;BME280;17384;51.214;9.202;2023-02-17T03:53:14;99010.53;;;6.67;88.81
30618;BME280;17384;51.214;9.202;2023-02-17T03:55:40;99003.28;;;6.67;89.10
30618;BME280;17384;51.214;9.202;2023-02-17T03:58:05;99009.81;;;6.73;88.90
30618;BME280;17384;51.214;9.202;2023-02-17T04:00:31;99018.34;;;6.76;88.92
30618;BME280;17384;51.214;9.202;2023-02-17T04:02:56;99015.56;;;6.70;88.93
30618;BME280;17384;51.214;9.202;2023-02-17T04:05:22;99006.72;;;6.76;88.95
30618;BME280;17384;51.214;9.202;2023-02-17T04:07:48;99004.88;;;6.76;89.02
30618;BME280;17384;51.214;9.202;2023-02-17T04:10:15;98988.22;;;6.73;88.83
30618;BME280;17384;51.214;9.202;2023-02-17T04:12:41;98997.34;;;6.72;88.80
30618;BME280;17384;51.214;9.202;2023-02-17T04:15:07;99008.03;;;6.80;88.80
30618;BME280;17384;51.214;9.202;2023-02-17T04:17:35;98999.66;;;6.90;88.57
30618;BME280;17384;51.214;9.202;2023-02-17T04:20:00;99001.69;;;6.88;88.37
30618;BME280;17384;51.214;9.202;2023-02-17T04:22:26;98997.81;;;6.75;88.52
30618;BME280;17384;51.214;9.202;2023-02-17T04:24:51;98996.59;;;6.78;88.92
30618;BME280;17384;51.214;9.202;2023-02-17T04:27:16;99003.00;;;6.77;88.98
30618;BME280;17384;51.214;9.202;2023-02-17T04:29:42;98992.22;;;6.77;89.06
30618;BME280;17384;51.214;9.202;2023-02-17T04:32:07;98989.69;;;6.90;88.50
30618;BME280;17384;51.214;9.202;2023-02-17T04:34:33;98994.34;;;6.96;88.09
30618;BME280;17384;51.214;9.202;2023-02-17T04:36:58;98986.53;;;7.01;87.81
30618;BME280;17384;51.214;9.202;2023-02-17T04:39:24;98974.16;;;6.92;87.96
30618;BME280;17384;51.214;9.202;2023-02-17T04:41:49;98984.13;;;6.92;88.07
30618;BME280;17384;51.214;9.202;2023-02-17T04:44:15;98976.41;;;6.89;88.28
30618;BME280;17384;51.214;9.202;2023-02-17T04:46:40;98981.88;;;6.95;88.32
30618;BME280;17384;51.214;9.202;2023-02-17T04:49:06;98981.03;;;6.95;88.17
30618;BME280;17384;51.214;9.202;2023-02-17T04:51:31;98975.38;;;6.90;87.85
30618;BME280;17384;51.214;9.202;2023-02-17T04:53:57;98967.00;;;6.85;88.12
30618;BME280;17384;51.214;9.202;2023-02-17T04:56:23;98964.22;;;6.93;88.54
30618;BME280;17384;51.214;9.202;2023-02-17T04:58:48;98968.22;;;6.97;87.99
30618;BME280;17384;51.214;9.202;2023-02-17T05:01:13;98958.25;;;6.97;88.25
30618;BME280;17384;51.214;9.202;2023-02-17T05:03:39;98973.66;;;7.18;87.87
30618;BME280;17384;51.214;9.202;2023-02-17T05:06:05;98970.66;;;7.28;87.45
30618;BME280;17384;51.214;9.202;2023-02-17T05:08:30;98972.06;;;7.24;87.28
30618;BME280;17384;51.214;9.202;2023-02-17T05:10:56;98961.16;;;7.32;86.93
30618;BME280;17384;51.214;9.202;2023-02-17T05:13:21;98953.16;;;7.60;85.62
30618;BME280;17384;51.214;9.202;2023-02-17T05:15:47;98958.72;;;7.79;84.93
30618;BME280;17384;51.214;9.202;2023-02-17T05:18:13;98958.88;;;7.93;84.19
30618;BME280;17384;51.214;9.202;2023-02-17T05:20:38;98953.34;;;8.07;83.48
30618;BME280;17384;51.214;9.202;2023-02-17T05:23:04;98962.56;;;8.13;83.16
30618;BME280;17384;51.214;9.202;2023-02-17T05:25:30;98969.47;;;8.22;82.77
30618;BME280;17384;51.214;9.202;2023-02-17T05:27:56;98968.25;;;8.25;82.63
30618;BME280;17384;51.214;9.202;2023-02-17T05:30:21;98962.84;;;8.25;82.40
30618;BME280;17384;51.214;9.202;2023-02-17T05:32:47;98959.19;;;8.32;81.67
30618;BME280;17384;51.214;9.202;2023-02-17T05:35:12;98966.75;;;8.43;81.47
30618;BME280;17384;51.214;9.202;2023-02-17T05:37:38;98968.00;;;8.41;81.56
30618;BME280;17384;51.214;9.202;2023-02-17T05:40:04;98966.75;;;8.43;81.36
30618;BME280;17384;51.214;9.202;2023-02-17T05:42:29;98971.13;;;8.44;81.40
30618;BME280;17384;51.214;9.202;2023-02-17T05:44:55;98967.16;;;8.40;81.31
30618;BME280;17384;51.214;9.202;2023-02-17T05:47:21;98965.94;;;8.49;80.80
30618;BME280;17384;51.214;9.202;2023-02-17T05:49:47;98966.19;;;8.55;80.28
30618;BME280;17384;51.214;9.202;2023-02-17T05:52:12;98973.66;;;8.53;80.73
30618;BME280;17384;51.214;9.202;2023-02-17T05:54:38;98966.44;;;8.60;80.38
30618;BME280;17384;51.214;9.202;2023-02-17T05:57:03;98957.50;;;8.59;80.13
30618;BME280;17384;51.214;9.202;2023-02-17T05:59:29;98956.84;;;8.57;80.39
30618;BME280;17384;51.214;9.202;2023-02-17T06:01:54;98933.94;;;8.53;80.52
30618;BME280;17384;51.214;9.202;2023-02-17T06:04:20;98937.25;;;8.48;80.57
30618;BME280;17384;51.214;9.202;2023-02-17T06:06:45;98953.00;;;8.38;81.17
30618;BME280;17384;51.214;9.202;2023-02-17T06:09:11;98944.31;;;8.49;80.24
30618;BME280;17384;51.214;9.202;2023-02-17T06:11:36;98935.66;;;8.61;80.22
30618;BME280;17384;51.214;9.202;2023-02-17T06:14:02;98941.06;;;8.61;79.97
30618;BME280;17384;51.214;9.202;2023-02-17T06:16:28;98933.59;;;8.63;79.91
30618;BME280;17384;51.214;9.202;2023-02-17T06:18:53;98923.16;;;8.60;80.00
30618;BME280;17384;51.214;9.202;2023-02-17T06:21:19;98921.50;;;8.59;79.96
30618;BME280;17384;51.214;9.202;2023-02-17T06:23:45;98942.28;;;8.58;79.99
30618;BME280;17384;51.214;9.202;2023-02-17T06:26:11;98942.75;;;8.62;79.79
30618;BME280;17384;51.214;9.202;2023-02-17T06:28:37;98935.47;;;8.62;79.94
30618;BME280;17384;51.214;9.202;2023-02-17T06:31:02;98931.28;;;8.60;79.77
30618;BME280;17384;51.214;9.202;2023-02-17T06:33:28;98954.97;;;8.58;80.11
30618;BME280;17384;51.214;9.202;2023-02-17T06:35:53;98967.28;;;8.60;79.86
30618;BME280;17384;51.214;9.202;2023-02-17T06:38:19;98961.66;;;8.62;79.78
30618;BME280;17384;51.214;9.202;2023-02-17T06:40:44;98961.31;;;8.71;78.53
30618;BME280;17384;51.214;9.202;2023-02-17T06:43:10;98951.53;;;8.70;79.34
30618;BME280;17384;51.214;9.202;2023-02-17T06:45:35;98952.38;;;8.71;79.15
30618;BME280;17384;51.214;9.202;2023-02-17T06:48:01;98947.94;;;8.63;79.53
30618;BME280;17384;51.214;9.202;2023-02-17T06:50:26;98932.78;;;8.69;79.27
30618;BME280;17384;51.214;9.202;2023-02-17T06:52:52;98924.88;;;8.67;79.19
30618;BME280;17384;51.214;9.202;2023-02-17T06:55:17;98935.25;;;8.64;79.43
30618;BME280;17384;51.214;9.202;2023-02-17T06:57:43;98931.16;;;8.74;78.99
30618;BME280;17384;51.214;9.202;2023-02-17T07:00:09;98941.16;;;8.74;78.88
30618;BME280;17384;51.214;9.202;2023-02-17T07:02:38;98941.16;;;8.74;78.99
30618;BME280;17384;51.214;9.202;2023-02-17T07:05:05;98964.03;;;8.78;78.78
30618;BME280;17384;51.214;9.202;2023-02-17T07:07:31;98950.31;;;8.79;78.83
30618;BME280;17384;51.214;9.202;2023-02-17T07:09:56;98931.38;;;8.79;78.93
30618;BME280;17384;51.214;9.202;2023-02-17T07:12:22;98909.34;;;8.82;78.76
30618;BME280;17384;51.214;9.202;2023-02-17T07:14:47;98909.13;;;8.84;79.02
30618;BME280;17384;51.214;9.202;2023-02-17T07:17:13;98903.31;;;8.87;78.40
30618;BME280;17384;51.214;9.202;2023-02-17T07:22:14;98928.31;;;8.89;78.56
30618;BME280;17384;51.214;9.202;2023-02-17T07:24:39;98922.50;;;8.92;78.67
30618;BME280;17384;51.214;9.202;2023-02-17T07:27:05;98926.25;;;8.91;78.56
30618;BME280;17384;51.214;9.202;2023-02-17T07:29:33;98926.25;;;8.91;78.62
30618;BME280;17384;51.214;9.202;2023-02-17T07:31:58;98920.44;;;8.94;78.39
30618;BME280;17384;51.214;9.202;2023-02-17T07:34:24;98929.81;;;8.98;78.59
30618;BME280;17384;51.214;9.202;2023-02-17T07:36:49;98909.59;;;8.94;78.62
30618;BME280;17384;51.214;9.202;2023-02-17T07:39:15;98913.78;;;9.03;78.23
30618;BME280;17384;51.214;9.202;2023-02-17T07:41:40;98933.56;;;9.04;78.51
30618;BME280;17384;51.214;9.202;2023-02-17T07:44:06;98940.00;;;9.03;78.28
30618;BME280;17384;51.214;9.202;2023-02-17T07:46:32;98943.78;;;9.08;77.96
30618;BME280;17384;51.214;9.202;2023-02-17T07:48:57;98927.13;;;9.11;78.48
30618;BME280;17384;51.214;9.202;2023-02-17T07:51:23;98930.06;;;9.16;78.27
30618;BME280;17384;51.214;9.202;2023-02-17T07:53:49;98925.94;;;9.21;78.28
30618;BME280;17384;51.214;9.202;2023-02-17T07:56:17;98922.59;;;9.19;78.21
30618;BME280;17384;51.214;9.202;2023-02-17T07:58:44;98925.28;;;9.19;78.04
30618;BME280;17384;51.214;9.202;2023-02-17T08:01:16;98914.47;;;9.19;78.67
30618;BME280;17384;51.214;9.202;2023-02-17T08:03:42;98922.59;;;9.19;78.48
30618;BME280;17384;51.214;9.202;2023-02-17T08:06:11;98918.66;;;9.21;78.75
30618;BME280;17384;51.214;9.202;2023-02-17T08:08:38;98936.53;;;9.15;79.42
30618;BME280;17384;51.214;9.202;2023-02-17T08:11:22;98923.00;;;9.15;78.81
30618;BME280;17384;51.214;9.202;2023-02-17T08:14:06;98910.69;;;9.13;79.01
30618;BME280;17384;51.214;9.202;2023-02-17T08:16:32;98912.16;;;9.15;78.69
30618;BME280;17384;51.214;9.202;2023-02-17T08:18:58;98911.97;;;9.17;79.04
30618;BME280;17384;51.214;9.202;2023-02-17T08:21:25;98900.94;;;9.19;78.33
30618;BME280;17384;51.214;9.202;2023-02-17T08:23:51;98907.59;;;9.16;79.03
30618;BME280;17384;51.214;9.202;2023-02-17T08:26:18;98899.28;;;9.18;78.87
30618;BME280;17384;51.214;9.202;2023-02-17T08:28:44;98916.31;;;9.11;79.16
30618;BME280;17384;51.214;9.202;2023-02-17T08:31:20;98905.28;;;9.13;78.93
30618;BME280;17384;51.214;9.202;2023-02-17T08:33:49;98905.09;;;9.14;79.33
30618;BME280;17384;51.214;9.202;2023-02-17T08:36:15;98911.72;;;9.12;79.78
30618;BME280;17384;51.214;9.202;2023-02-17T08:38:41;98900.72;;;9.13;79.54
30618;BME280;17384;51.214;9.202;2023-02-17T08:41:31;98902.38;;;9.14;79.61
30618;BME280;17384;51.214;9.202;2023-02-17T08:43:58;98887.59;;;9.17;80.00
30618;BME280;17384;51.214;9.202;2023-02-17T08:46:25;98898.84;;;9.14;79.84
30618;BME280;17384;51.214;9.202;2023-02-17T08:48:52;98886.38;;;9.20;79.91
30618;BME280;17384;51.214;9.202;2023-02-17T08:51:20;98879.50;;;9.24;79.53
30618;BME280;17384;51.214;9.202;2023-02-17T08:53:52;98876.81;;;9.24;79.44
30618;BME280;17384;51.214;9.202;2023-02-17T08:56:19;98874.28;;;9.22;79.80
30618;BME280;17384;51.214;9.202;2023-02-17T08:58:45;98873.47;;;9.22;79.62
30618;BME280;17384;51.214;9.202;2023-02-17T09:01:11;98884.72;;;9.25;80.11
30618;BME280;17384;51.214;9.202;2023-02-17T09:03:37;98884.31;;;9.28;80.31
30618;BME280;17384;51.214;9.202;2023-02-17T09:06:04;98882.00;;;9.32;79.89
30618;BME280;17384;51.214;9.202;2023-02-17T09:08:30;98868.06;;;9.28;79.79
30618;BME280;17384;51.214;9.202;2023-02-17T09:10:56;98864.50;;;9.34;79.70
30618;BME280;17384;51.214;9.202;2023-02-17T09:13:23;98884.13;;;9.43;79.32
30618;BME280;17384;51.214;9.202;2023-02-17T09:15:48;98875.16;;;9.49;78.96
30618;BME280;17384;51.214;9.202;2023-02-17T09:18:18;98876.44;;;9.53;78.89
30618;BME280;17384;51.214;9.202;2023-02-17T09:20:44;98892.28;;;9.56;78.84
30618;BME280;17384;51.214;9.202;2023-02-17T09:23:09;98883.91;;;9.58;78.79
30618;BME280;17384;51.214;9.202;2023-02-17T09:25:35;98876.41;;;9.60;78.76
30618;BME280;17384;51.214;9.202;2023-02-17T09:28:00;98853.06;;;9.59;78.53
30618;BME280;17384;51.214;9.202;2023-02-17T09:30:26;98877.25;;;9.67;78.70
30618;BME280;17384;51.214;9.202;2023-02-17T09:32:52;98863.50;;;9.68;78.50
30618;BME280;17384;51.214;9.202;2023-02-17T09:35:18;98870.41;;;9.77;78.13
30618;BME280;17384;51.214;9.202;2023-02-17T09:37:44;98881.44;;;9.82;78.62
30618;BME280;17384;51.214;9.202;2023-02-17T09:40:17;98881.00;;;9.99;78.28
30618;BME280;17384;51.214;9.202;2023-02-17T09:42:43;98890.19;;;10.04;78.15
30618;BME280;17384;51.214;9.202;2023-02-17T09:45:31;98873.09;;;10.04;77.72
30618;BME280;17384;51.214;9.202;2023-02-17T09:48:01;98875.59;;;10.05;78.07
30618;BME280;17384;51.214;9.202;2023-02-17T09:50:37;98880.75;;;10.13;77.93
30618;BME280;17384;51.214;9.202;2023-02-17T09:53:46;98862.22;;;10.17;77.72
30618;BME280;17384;51.214;9.202;2023-02-17T09:56:19;98871.38;;;10.16;77.40
30618;BME280;17384;51.214;9.202;2023-02-17T09:58:54;98867.25;;;10.20;78.19
30618;BME280;17384;51.214;9.202;2023-02-17T10:01:28;98873.06;;;10.17;77.84
30618;BME280;17384;51.214;9.202;2023-02-17T10:06:34;98894.75;;;10.17;78.76
30618;BME280;17384;51.214;9.202;2023-02-17T10:09:20;98883.50;;;10.20;78.46
30618;BME280;17384;51.214;9.202;2023-02-17T10:12:13;98892.25;;;10.22;79.17
30618;BME280;17384;51.214;9.202;2023-02-17T10:19:55;98882.66;;;10.26;79.57
30618;BME280;17384;51.214;9.202;2023-02-17T10:22:22;98882.03;;;10.37;79.18
30618;BME280;17384;51.214;9.202;2023-02-17T10:24:49;98893.72;;;10.31;79.00
30618;BME280;17384;51.214;9.202;2023-02-17T10:27:36;98886.84;;;10.35;79.58
30618;BME280;17384;51.214;9.202;2023-02-17T10:30:37;98891.59;;;10.40;79.50
30618;BME280;17384;51.214;9.202;2023-02-17T10:33:16;98867.44;;;10.38;79.57
30618;BME280;17384;51.214;9.202;2023-02-17T10:35:54;98873.47;;;10.34;79.59
30618;BME280;17384;51.214;9.202;2023-02-17T10:40:59;98884.13;;;10.35;80.00
30618;BME280;17384;51.214;9.202;2023-02-17T10:43:30;98868.84;;;10.41;79.50
30618;BME280;17384;51.214;9.202;2023-02-17T10:45:58;98876.41;;;10.39;79.56
30618;BME280;17384;51.214;9.202;2023-02-17T10:51:05;98890.53;;;10.47;79.09
30618;BME280;17384;51.214;9.202;2023-02-17T10:53:35;98901.59;;;10.52;79.14
30618;BME280;17384;51.214;9.202;2023-02-17T10:56:08;98909.50;;;10.61;78.78
30618;BME280;17384;51.214;9.202;2023-02-17T10:58:51;98899.84;;;10.71;78.30
30618;BME280;17384;51.214;9.202;2023-02-17T11:01:18;98895.06;;;10.73;78.23
30618;BME280;17384;51.214;9.202;2023-02-17T11:03:44;98902.56;;;10.78;77.64
30618;BME280;17384;51.214;9.202;2023-02-17T11:06:18;98915.47;;;10.89;76.98
30618;BME280;17384;51.214;9.202;2023-02-17T11:08:49;98895.16;;;10.98;76.59
30618;BME280;17384;51.214;9.202;2023-02-17T11:11:19;98907.00;;;11.10;76.52
30618;BME280;17384;51.214;9.202;2023-02-17T11:13:55;98898.97;;;11.29;75.66
30618;BME280;17384;51.214;9.202;2023-02-17T11:16:39;98889.53;;;11.38;74.98
30618;BME280;17384;51.214;9.202;2023-02-17T11:19:21;98893.66;;;11.47;75.00
30618;BME280;17384;51.214;9.202;2023-02-17T11:21:49;98871.22;;;11.51;74.28
30618;BME280;17384;51.214;9.202;2023-02-17T11:24:15;98861.56;;;11.62;74.31
30618;BME280;17384;51.214;9.202;2023-02-17T11:26:41;98866.78;;;11.64;73.92
30618;BME280;17384;51.214;9.202;2023-02-17T11:29:25;98862.78;;;11.66;73.85
30618;BME280;17384;51.214;9.202;2023-02-17T11:32:00;98840.66;;;11.63;74.16
30618;BME280;17384;51.214;9.202;2023-02-17T11:34:29;98847.09;;;11.68;73.98
30618;BME280;17384;51.214;9.202;2023-02-17T11:39:48;98838.66;;;11.76;74.18
30618;BME280;17384;51.214;9.202;2023-02-17T11:42:30;98837.00;;;11.75;73.86
30618;BME280;17384;51.214;9.202;2023-02-17T11:45:13;98832.78;;;11.79;74.24
30618;BME280;17384;51.214;9.202;2023-02-17T11:47:59;98819.41;;;11.78;73.84
30618;BME280;17384;51.214;9.202;2023-02-17T11:56:28;98827.84;;;11.95;73.30
30618;BME280;17384;51.214;9.202;2023-02-17T11:59:26;98822.19;;;11.96;74.06
30618;BME280;17384;51.214;9.202;2023-02-17T12:04:35;98814.44;;;12.00;73.10
30618;BME280;17384;51.214;9.202;2023-02-17T12:07:53;98818.72;;;12.07;73.00
30618;BME280;17384;51.214;9.202;2023-02-17T12:10:30;98833.31;;;12.13;73.74
30618;BME280;17384;51.214;9.202;2023-02-17T12:32:15;98807.34;;;12.53;71.48
30618;BME280;17384;51.214;9.202;2023-02-17T12:34:47;98807.94;;;12.56;72.41
30618;BME280;17384;51.214;9.202;2023-02-17T12:37:21;98802.78;;;12.66;71.06
30618;BME280;17384;51.214;9.202;2023-02-17T12:39:52;98788.41;;;12.77;71.21
30618;BME280;17384;51.214;9.202;2023-02-17T12:42:23;98796.81;;;12.75;71.20
30618;BME280;17384;51.214;9.202;2023-02-17T12:44:58;98784.44;;;12.91;70.85
30618;BME280;17384;51.214;9.202;2023-02-17T12:48:11;98794.78;;;13.01;70.18
30618;BME280;17384;51.214;9.202;2023-02-17T12:50:37;98777.41;;;13.13;70.21
30618;BME280;17384;51.214;9.202;2023-02-17T12:53:24;98759.88;;;13.39;68.85
30618;BME280;17384;51.214;9.202;2023-02-17T12:55:56;98760.44;;;13.41;68.95
30618;BME280;17384;51.214;9.202;2023-02-17T12:58:26;98760.59;;;13.58;68.16
30618;BME280;17384;51.214;9.202;2023-02-17T13:01:14;98735.72;;;13.66;67.66
30618;BME280;17384;51.214;9.202;2023-02-17T13:03:43;98739.72;;;13.75;67.79
30618;BME280;17384;51.214;9.202;2023-02-17T13:08:42;98715.97;;;14.11;66.55
30618;BME280;17384;51.214;9.202;2023-02-17T13:11:12;98728.47;;;14.35;64.73
30618;BME280;17384;51.214;9.202;2023-02-17T13:13:39;98724.47;;;14.26;64.76
30618;BME280;17384;51.214;9.202;2023-02-17T13:16:11;98723.63;;;14.37;64.15
30618;BME280;17384;51.214;9.202;2023-02-17T13:18:39;98747.63;;;14.75;62.86
30618;BME280;17384;51.214;9.202;2023-02-17T13:24:12;98715.31;;;14.32;64.50
30618;BME280;17384;51.214;9.202;2023-02-17T13:26:40;98715.97;;;14.11;64.70
30618;BME280;17384;51.214;9.202;2023-02-17T13:31:56;98741.72;;;14.15;64.17
30618;BME280;17384;51.214;9.202;2023-02-17T13:34:43;98715.00;;;14.17;63.78
30618;BME280;17384;51.214;9.202;2023-02-17T13:42:52;98736.38;;;14.08;64.17
30618;BME280;17384;51.214;9.202;2023-02-17T13:45:28;98716.16;;;14.33;63.20
30618;BME280;17384;51.214;9.202;2023-02-17T13:48:11;98728.31;;;14.13;63.00
30618;BME280;17384;51.214;9.202;2023-02-17T13:51:05;98736.97;;;13.99;63.98
30618;BME280;17384;51.214;9.202;2023-02-17T13:53:37;98753.25;;;13.94;65.06
30618;BME280;17384;51.214;9.202;2023-02-17T13:56:04;98737.13;;;13.92;63.98
30618;BME280;17384;51.214;9.202;2023-02-17T13:58:35;98737.72;;;13.82;64.69
30618;BME280;17384;51.214;9.202;2023-02-17T14:01:14;98739.13;;;13.85;63.79
30618;BME280;17384;51.214;9.202;2023-02-17T14:03:46;98738.78;;;13.81;65.23
30618;BME280;17384;51.214;9.202;2023-02-17T14:06:34;98740.19;;;13.84;65.45
30618;BME280;17384;51.214;9.202;2023-02-17T14:09:20;98727.03;;;13.69;65.82
30618;BME280;17384;51.214;9.202;2023-02-17T14:11:48;98720.28;;;13.72;65.35
30618;BME280;17384;51.214;9.202;2023-02-17T14:14:14;98744.09;;;13.53;66.59
30618;BME280;17384;51.214;9.202;2023-02-17T14:16:41;98726.22;;;13.57;65.38
30618;BME280;17384;51.214;9.202;2023-02-17T14:19:14;98739.47;;;13.53;66.23
30618;BME280;17384;51.214;9.202;2023-02-17T14:21:43;98753.22;;;13.47;66.24
30618;BME280;17384;51.214;9.202;2023-02-17T14:24:28;98763.97;;;13.42;66.16
30618;BME280;17384;51.214;9.202;2023-02-17T14:27:01;98772.16;;;13.42;66.58
30618;BME280;17384;51.214;9.202;2023-02-17T14:29:39;98777.03;;;13.40;66.72
30618;BME280;17384;51.214;9.202;2023-02-17T14:32:05;98784.47;;;13.33;66.81
30618;BME280;17384;51.214;9.202;2023-02-17T14:34:33;98790.53;;;13.35;67.30
30618;BME280;17384;51.214;9.202;2023-02-17T14:37:16;98789.69;;;13.34;67.69
30618;BME280;17384;51.214;9.202;2023-02-17T14:39:42;98776.22;;;13.51;67.01
30618;BME280;17384;51.214;9.202;2023-02-17T14:42:08;98782.59;;;13.33;67.78